Time;durP1;ratioP1;P1;durP2;ratioP2;P2;SDS_P1;SDS_P2;PMS_P1;PMS_P2;Temp;Humidity;BMP_temperature;BMP_pressure;BME280_temperature;BME280_humidity;BME280_pressure;Samples;Min_cycle;Max_cycle;Signal;HPM_P1;HPM_P2
2022/02/14 09:31:02;;;;;;;;;;;26.70;1.00;;;;;;5109360;27;19916;-68
2022/02/14 09:36:07;;;;;;;;;;;24.40;1.00;;;;;;7424497;19;19926;-69
2022/02/14 09:38:36;;;;;;;;;;;23.00;1.00;;;;;;7071814;19;5014892;-69
2022/02/14 09:41:04;;;;;;;;;;;22.80;3.20;;;;;;7403832;19;20324;-70
2022/02/14 09:49:26;;;;;;;;;;;26.10;1.00;;;;;;7384210;19;19915;-75
2022/02/14 09:51:56;;;;;;;;;;;24.90;1.00;;;;;;7039807;19;5014818;-66
2022/02/14 09:56:47;;;;;;;;;;;24.30;1.00;;;;;;7357605;19;19918;-74
2022/02/14 09:59:16;;;;;;;;;;;23.60;1.00;;;;;;7407120;19;19996;-74
2022/02/14 10:01:45;;;;;;;;;;;23.60;1.00;;;;;;7340670;19;19918;-82
2022/02/14 10:04:14;;;;;;;;;;;23.60;1.00;;;;;;7429850;19;19926;-78
2022/02/14 10:15:51;;;;;;;;;;;24.70;1.60;;;;;;7394080;19;19918;-75
2022/02/14 10:18:31;;;;;;;;;;;24.00;1.00;;;;;;7384615;19;19911;-75
2022/02/14 10:21:21;;;;;;;;;;;23.50;1.00;;;;;;7292522;19;1007512;-75
2022/02/14 10:24:42;;;;;;;;;;;23.40;1.00;;;;;;7430054;19;1321;-79
2022/02/14 10:28:34;;;;;;;;;;;23.30;1.00;;;;;;7361540;19;13406;-69
2022/02/14 10:31:05;;;;;;;;;;;23.20;1.00;;;;;;7406332;19;14271;-69
2022/02/14 10:33:49;;;;;;;;;;;23.30;1.10;;;;;;7431142;19;1531;-69
2022/02/14 10:36:29;;;;;;;;;;;23.30;1.00;;;;;;7430386;19;1073;-69
2022/02/14 10:38:58;;;;;;;;;;;23.30;1.00;;;;;;7376616;19;15437;-72
2022/02/14 10:41:29;;;;;;;;;;;23.30;1.00;;;;;;7428987;19;1052;-76
2022/02/14 10:44:13;;;;;;;;;;;23.30;1.00;;;;;;7299357;19;1007362;-72
2022/02/14 12:11:52;;;;;;;;;;;24.60;1.00;;;;;;7355041;19;16104;-42
2022/02/14 12:31:02;;;;;;;;;;;;;;;;;;5086101;27;19934;-36
2022/02/14 12:39:50;;;;;;;;;;;;;;;;;;5044879;27;9995;-42
2022/02/14 12:43:43;;;;;;;;;;;;;;;;;;5023823;28;19922;-41
2022/02/14 12:47:23;;;;;;;;;;;26.70;1.00;;;;;;5018828;28;10288;-43
2022/02/14 12:50:51;;;;;;;;;;;26.90;1.00;;;;;;5060947;27;10658;-51
2022/02/14 12:55:31;;;;;;;;;;;26.20;1.00;;;;;;5065059;28;12056;-40
2022/02/14 13:40:58;;;;;;;;;;;;;;;;;;5034438;28;9801;-47
2022/02/14 13:45:43;;;;;;;6.63;4.67;;;;;;;;;;5030449;27;20640;-48
2022/02/14 13:49:37;;;;;;;8.80;6.10;;;;;;;;;;5068840;28;20555;-43
2022/02/14 13:52:03;;;;;;;7.77;5.90;;;;;;;;;;5069235;28;20420;-43
2022/02/14 13:57:33;;;;;;;12.37;6.00;;;;;;;;;;5028198;27;20544;-41
2022/02/14 14:02:17;;;;;;;11.90;5.73;;;25.80;1.00;;;;;;5030153;28;20523;-49
2022/02/14 14:07:11;;;;;;;6.23;4.80;;;;;;;;;;5008313;28;20558;-42
2022/02/14 14:09:55;;;;;;;7.13;5.10;;;;;;;;;;5009972;28;20552;-39
2022/02/14 14:12:53;;;;;;;6.87;5.00;;;25.80;1.00;;;;;;5051852;27;20557;-49
2022/02/14 14:15:19;;;;;;;12.60;5.70;;;25.70;1.00;;;;;;5022211;28;20441;-46
2022/02/14 14:17:45;;;;;;;10.07;5.83;;;25.60;1.00;;;;;;5014541;28;20179;-57
2022/02/14 14:20:11;;;;;;;9.23;5.77;;;25.50;1.00;;;;;;5011767;28;20512;-57
2022/02/14 14:24:34;;;;;;;7.83;5.40;;;25.40;1.00;;;;;;5109944;27;20515;-48
2022/02/14 14:26:59;;;;;;;9.03;5.23;;;25.80;1.00;;;;;;5093783;28;20511;-50
2022/02/14 14:31:45;;;;;;;11.97;6.00;;;25.70;1.00;;;;;;4984377;28;58797;-48
2022/02/14 14:35:15;;;;;;;7.38;5.15;;;25.50;1.00;;;;;;5006069;28;20434;-48
2022/02/14 14:38:45;;;;;;;11.87;5.50;;;25.70;1.00;;;;;;5006279;28;20231;-50
2022/02/14 14:41:12;;;;;;;6.53;4.93;;;25.70;1.00;;;;;;5017616;28;20609;-60
2022/02/14 14:43:38;;;;;;;8.60;5.57;;;25.80;1.00;;;;;;5028372;28;20500;-51
2022/02/14 14:46:04;;;;;;;7.23;4.80;;;26.00;1.00;;;;;;5045579;28;20590;-51
2022/02/14 14:48:30;;;;;;;7.53;4.80;;;25.70;1.00;;;;;;5039890;28;20217;-51
2022/02/14 14:50:56;;;;;;;9.33;4.67;;;25.80;1.00;;;;;;5023370;28;20461;-50
2022/02/14 14:54:39;;;;;;;8.77;5.00;;;25.70;1.00;;;;;;5032327;27;20589;-45
2022/02/14 14:57:06;;;;;;;16.00;5.60;;;25.50;1.00;;;;;;5015133;28;20492;-42
2022/02/14 14:59:33;;;;;;;7.73;4.80;;;25.40;1.00;;;;;;5029871;28;20824;-46
2022/02/14 15:01:59;;;;;;;6.93;4.47;;;25.30;1.00;;;;;;5015027;28;20458;-47
2022/02/14 15:04:25;;;;;;;7.30;4.60;;;25.10;1.00;;;;;;5011195;28;20428;-45
2022/02/14 15:06:52;;;;;;;14.60;5.60;;;25.10;1.00;;;;;;5011044;28;20446;-45
2022/02/14 15:09:17;;;;;;;8.53;4.50;;;25.10;1.00;;;;;;5011281;28;20449;-45
2022/02/14 15:11:45;;;;;;;12.30;4.87;;;25.10;1.10;;;;;;5010235;28;20419;-45
2022/02/14 15:14:10;;;;;;;7.73;4.10;;;25.00;1.00;;;;;;5011048;28;20199;-46
2022/02/14 15:16:36;;;;;;;11.03;5.80;;;25.00;1.00;;;;;;5012226;28;20427;-45
2022/02/14 15:19:07;;;;;;;8.57;4.93;;;25.00;1.00;;;;;;5013235;28;20196;-45
2022/02/14 15:21:34;;;;;;;10.73;5.23;;;25.00;1.00;;;;;;5018450;28;20221;-45
2022/02/14 15:24:00;;;;;;;11.93;4.60;;;24.80;1.00;;;;;;5049239;28;20699;-45
2022/02/14 15:26:25;;;;;;;15.07;4.77;;;24.90;1.00;;;;;;5050499;28;20180;-45
2022/02/14 15:28:51;;;;;;;12.57;4.87;;;24.90;1.00;;;;;;5050511;28;20436;-45
2022/02/14 15:31:17;;;;;;;8.00;5.07;;;24.90;1.00;;;;;;5057154;28;20170;-46
2022/02/14 15:33:42;;;;;;;6.40;5.00;;;24.90;1.00;;;;;;5055334;28;20255;-45
2022/02/14 15:36:08;;;;;;;11.53;4.97;;;24.90;1.00;;;;;;5051668;28;20174;-46
2022/02/14 15:38:35;;;;;;;10.20;5.13;;;24.80;1.00;;;;;;5050991;28;20190;-47
2022/02/14 15:41:01;;;;;;;12.97;5.10;;;24.80;1.00;;;;;;5050292;28;20503;-45
2022/02/14 15:43:27;;;;;;;10.33;4.50;;;24.80;1.00;;;;;;5065920;28;20444;-45
2022/02/14 15:45:56;;;;;;;10.40;5.20;;;24.70;1.00;;;;;;5050269;28;20589;-46
2022/02/14 15:48:22;;;;;;;8.20;4.63;;;24.70;1.00;;;;;;5050288;28;20194;-45
2022/02/14 15:50:49;;;;;;;10.20;4.70;;;24.70;1.00;;;;;;5050179;28;20416;-46
2022/02/14 15:53:14;;;;;;;8.63;4.83;;;24.70;1.00;;;;;;5049963;28;20486;-45
2022/02/14 15:55:40;;;;;;;10.93;4.63;;;24.70;1.00;;;;;;5050098;28;20946;-46
2022/02/14 15:58:06;;;;;;;13.33;4.83;;;24.70;1.00;;;;;;5050046;28;20217;-44
2022/02/14 16:00:31;;;;;;;15.23;4.90;;;24.60;1.00;;;;;;5049407;28;20182;-45
2022/02/14 16:02:57;;;;;;;9.00;5.63;;;24.60;1.00;;;;;;5052297;22;20237;-39
2022/02/14 16:05:23;;;;;;;17.33;5.60;;;24.70;1.00;;;;;;5001316;28;20193;-40
2022/02/14 16:07:49;;;;;;;13.47;5.07;;;24.70;1.00;;;;;;5012677;28;20237;-38
2022/02/14 16:10:14;;;;;;;9.23;5.27;;;24.70;1.00;;;;;;5013805;28;20465;-38
2022/02/14 16:12:40;;;;;;;10.87;4.90;;;24.80;1.00;;;;;;5014468;28;20682;-40
2022/02/14 16:15:13;;;;;;;13.50;5.30;;;24.80;1.00;;;;;;5013718;28;20936;-40
2022/02/14 16:17:44;;;;;;;11.47;4.70;;;24.80;1.00;;;;;;5015818;28;20183;-39
2022/02/14 16:20:14;;;;;;;14.03;5.40;;;24.80;1.00;;;;;;5016727;28;20475;-39
2022/02/14 16:22:46;;;;;;;7.13;4.60;;;24.80;1.00;;;;;;5017413;28;20448;-38
2022/02/14 16:25:13;;;;;;;20.63;6.20;;;24.80;1.00;;;;;;5016277;28;20450;-39
2022/02/14 16:27:39;;;;;;;7.93;5.03;;;24.80;1.00;;;;;;5015479;28;20422;-39
2022/02/14 16:30:07;;;;;;;11.13;6.17;;;24.80;1.00;;;;;;5013715;28;20414;-38
2022/02/14 16:32:33;;;;;;;12.93;5.77;;;24.70;1.00;;;;;;5013480;28;20945;-39
2022/02/14 16:34:59;;;;;;;10.33;4.97;;;24.70;1.00;;;;;;5014187;28;20513;-39
2022/02/14 16:37:27;;;;;;;11.33;5.60;;;24.80;1.00;;;;;;5006530;28;20455;-38
2022/02/14 16:39:54;;;;;;;12.45;5.55;;;24.80;1.00;;;;;;4992416;28;20453;-39
2022/02/14 16:42:22;;;;;;;7.40;4.70;;;24.80;1.00;;;;;;4993527;28;20246;-40
2022/02/14 16:44:48;;;;;;;12.03;5.20;;;24.80;1.00;;;;;;4993984;28;20510;-40
2022/02/14 16:47:14;;;;;;;10.30;5.37;;;24.80;1.00;;;;;;5010841;28;20488;-40
2022/02/14 16:49:53;;;;;;;10.40;5.37;;;24.80;1.00;;;;;;5012880;28;20410;-39
2022/02/14 16:52:26;;;;;;;11.97;4.77;;;24.80;1.00;;;;;;5012803;28;20191;-39
2022/02/14 16:54:54;;;;;;;10.50;5.17;;;24.80;1.00;;;;;;5011644;28;20426;-40
2022/02/14 16:57:21;;;;;;;8.20;5.23;;;24.80;1.00;;;;;;4995004;28;20414;-39
2022/02/14 16:59:47;;;;;;;8.60;4.83;;;24.70;1.00;;;;;;5012519;28;20557;-39
2022/02/14 17:02:15;;;;;;;11.97;5.40;;;24.70;1.00;;;;;;5012690;28;20901;-39
2022/02/14 17:04:41;;;;;;;7.73;5.00;;;24.70;1.00;;;;;;5012413;28;20426;-39
2022/02/14 17:07:06;;;;;;;6.20;4.93;;;24.70;1.00;;;;;;5012692;28;20781;-39
2022/02/14 17:09:32;;;;;;;7.97;4.70;;;24.70;1.00;;;;;;5012596;28;20212;-39
2022/02/14 17:11:58;;;;;;;11.13;5.83;;;24.70;1.00;;;;;;5011537;28;20198;-37
2022/02/14 17:14:24;;;;;;;20.33;10.40;;;24.20;1.00;;;;;;5012209;28;20814;-38
2022/02/14 17:16:49;;;;;;;21.77;11.77;;;24.70;1.00;;;;;;5011366;28;20658;-39
2022/02/14 17:19:16;;;;;;;29.70;20.60;;;24.70;1.00;;;;;;5012477;28;20306;-38
2022/02/14 17:21:42;;;;;;;38.53;22.93;;;24.70;1.00;;;;;;5010946;28;20200;-39
2022/02/14 17:24:10;;;;;;;34.20;22.07;;;24.70;1.00;;;;;;5012384;28;20458;-38
2022/02/14 17:26:37;;;;;;;39.57;24.77;;;24.70;1.00;;;;;;5012310;28;20476;-38
2022/02/14 17:29:04;;;;;;;37.10;23.77;;;24.70;1.00;;;;;;5012572;28;20561;-39
2022/02/14 17:31:31;;;;;;;32.57;22.77;;;24.70;1.00;;;;;;4994147;28;20472;-38
2022/02/14 17:33:57;;;;;;;42.30;23.73;;;24.60;1.00;;;;;;5012530;28;20774;-39
2022/02/14 17:36:24;;;;;;;32.50;21.43;;;24.60;1.00;;;;;;5011993;28;20476;-39
2022/02/14 17:38:54;;;;;;;33.27;21.40;;;24.60;1.00;;;;;;5011830;28;20183;-39
2022/02/14 17:41:21;;;;;;;33.70;20.33;;;24.60;1.00;;;;;;5011257;28;20933;-38
2022/02/14 17:43:47;;;;;;;24.17;18.37;;;24.60;1.00;;;;;;5011949;28;20534;-39
2022/02/14 17:46:14;;;;;;;29.80;17.70;;;24.60;1.00;;;;;;5011869;28;20526;-39
2022/02/14 17:48:40;;;;;;;23.20;17.93;;;24.60;1.00;;;;;;5010760;28;20258;-40
2022/02/14 17:51:06;;;;;;;24.53;17.30;;;24.60;1.00;;;;;;5011211;28;20517;-39
2022/02/14 17:53:31;;;;;;;24.60;16.43;;;24.60;1.00;;;;;;5011430;28;20548;-39
2022/02/14 17:55:57;;;;;;;26.53;16.50;;;24.60;1.00;;;;;;5011771;28;20176;-39
2022/02/14 17:58:23;;;;;;;21.77;16.40;;;24.60;1.00;;;;;;5011111;28;20262;-39
2022/02/14 18:00:49;;;;;;;19.20;14.90;;;24.60;1.00;;;;;;5010839;28;20207;-39
2022/02/14 18:03:14;;;;;;;18.80;14.73;;;24.60;1.00;;;;;;5011463;28;20545;-39
2022/02/14 18:05:40;;;;;;;25.03;15.67;;;24.60;1.00;;;;;;5011484;28;20179;-41
2022/02/14 18:08:06;;;;;;;19.33;13.93;;;24.60;1.00;;;;;;5011142;28;20171;-39
2022/02/14 18:10:34;;;;;;;20.23;15.20;;;24.60;1.00;;;;;;5010566;28;20179;-39
2022/02/14 18:13:00;;;;;;;24.37;15.37;;;24.60;1.00;;;;;;5011628;28;20682;-37
2022/02/14 18:15:26;;;;;;;25.00;14.57;;;24.50;1.00;;;;;;5011644;28;20422;-39
2022/02/14 18:17:52;;;;;;;19.87;14.43;;;24.50;1.00;;;;;;5011535;28;21129;-39
2022/02/14 18:20:18;;;;;;;21.53;13.77;;;24.50;1.00;;;;;;5010903;28;20410;-38
2022/02/14 18:22:44;;;;;;;21.20;14.10;;;24.50;1.00;;;;;;5011064;28;20230;-39
2022/02/14 18:25:10;;;;;;;23.93;13.50;;;24.60;1.00;;;;;;5011487;28;20810;-43
2022/02/14 18:27:37;;;;;;;19.73;12.47;;;24.60;1.00;;;;;;5010448;28;20522;-40
2022/02/14 18:30:04;;;;;;;20.63;13.43;;;24.60;1.00;;;;;;5010804;28;20514;-40
2022/02/14 18:32:30;;;;;;;17.80;13.10;;;24.60;1.00;;;;;;5005392;28;20456;-39
2022/02/14 18:34:56;;;;;;;19.37;12.70;;;24.60;1.00;;;;;;5003793;28;20425;-40
2022/02/14 18:37:22;;;;;;;19.67;12.77;;;24.60;1.00;;;;;;4996580;28;20926;-39
2022/02/14 18:39:48;;;;;;;18.07;10.93;;;24.60;1.00;;;;;;4990860;28;20778;-39
2022/02/14 18:42:13;;;;;;;15.50;11.50;;;24.60;1.00;;;;;;5006512;28;20206;-40
2022/02/14 18:44:39;;;;;;;13.83;10.93;;;24.60;1.00;;;;;;5011020;28;20217;-40
2022/02/14 18:47:07;;;;;;;18.00;12.60;;;24.60;1.00;;;;;;5011163;28;20171;-39
2022/02/14 18:49:34;;;;;;;16.43;12.20;;;24.60;1.00;;;;;;5010952;28;20921;-40
2022/02/14 18:52:00;;;;;;;14.67;11.20;;;24.60;1.00;;;;;;5009933;28;20529;-40
2022/02/14 18:54:26;;;;;;;15.63;10.37;;;24.60;1.00;;;;;;5011254;28;20462;-40
2022/02/14 18:56:52;;;;;;;13.60;10.67;;;24.70;1.00;;;;;;5007913;28;20426;-40
2022/02/14 18:59:17;;;;;;;14.70;10.53;;;24.60;1.00;;;;;;5011304;28;20263;-41
2022/02/14 19:01:43;;;;;;;14.80;10.90;;;24.70;1.00;;;;;;5009932;28;20199;-40
2022/02/14 19:04:10;;;;;;;14.67;10.53;;;24.70;1.00;;;;;;5011051;28;20349;-40
2022/02/14 19:06:36;;;;;;;12.67;9.80;;;24.70;1.00;;;;;;5010669;28;20174;-42
2022/02/14 19:09:02;;;;;;;13.07;10.23;;;24.70;1.00;;;;;;5010988;28;20437;-41
2022/02/14 19:11:28;;;;;;;14.33;10.13;;;24.60;1.00;;;;;;5010151;28;20199;-40
2022/02/14 19:13:54;;;;;;;13.63;9.70;;;24.70;1.00;;;;;;5011267;28;20535;-41
2022/02/14 19:16:19;;;;;;;12.57;9.70;;;24.70;1.00;;;;;;5011295;28;20725;-41
2022/02/14 19:18:45;;;;;;;14.70;9.30;;;24.70;1.00;;;;;;5011237;28;20176;-41
2022/02/14 19:21:11;;;;;;;14.03;9.27;;;24.70;1.00;;;;;;5010145;28;20258;-41
2022/02/14 19:23:38;;;;;;;11.50;8.90;;;24.70;1.00;;;;;;5011447;28;20179;-41
2022/02/14 19:26:04;;;;;;;11.80;9.27;;;24.70;1.00;;;;;;4993960;28;21009;-41
2022/02/14 19:28:30;;;;;;;11.47;8.67;;;24.70;1.00;;;;;;5011356;28;20624;-41
2022/02/14 19:30:59;;;;;;;13.30;9.17;;;24.70;1.00;;;;;;5010637;28;20249;-41
2022/02/14 19:36:10;;;;;;;9.30;7.93;;;24.70;1.00;;;;;;5011304;28;20833;-41
2022/02/14 19:38:38;;;;;;;8.63;7.60;;;24.70;1.00;;;;;;5009048;28;20450;-41
2022/02/14 19:41:06;;;;;;;9.00;7.83;;;24.70;1.00;;;;;;4996738;28;20919;-41
2022/02/14 19:43:33;;;;;;;15.03;8.57;;;24.70;1.00;;;;;;4995793;28;20502;-41
2022/02/14 19:45:59;;;;;;;11.37;8.00;;;24.60;1.00;;;;;;5008286;28;20426;-41
2022/02/14 19:48:26;;;;;;;10.40;7.60;;;24.70;1.00;;;;;;5015107;28;20422;-41
2022/02/14 19:50:51;;;;;;;10.60;8.17;;;24.70;1.00;;;;;;5014131;28;20449;-41
2022/02/14 19:53:17;;;;;;;10.00;8.13;;;24.70;1.00;;;;;;5014759;28;20961;-41
2022/02/14 19:55:43;;;;;;;11.80;8.30;;;24.70;1.00;;;;;;5015287;28;20627;-41
2022/02/14 19:58:08;;;;;;;10.77;7.60;;;24.60;1.00;;;;;;5015278;28;20175;-41
2022/02/14 20:00:34;;;;;;;11.70;7.57;;;24.60;1.00;;;;;;5014366;28;20171;-41
2022/02/14 20:02:59;;;;;;;10.40;7.30;;;24.60;1.00;;;;;;5014613;28;20294;-41
2022/02/14 20:05:25;;;;;;;8.00;6.80;;;24.70;1.00;;;;;;5014529;28;20222;-41
2022/02/14 20:07:51;;;;;;;10.10;6.80;;;24.60;1.00;;;;;;5014694;28;20646;-41
2022/02/14 20:10:17;;;;;;;8.90;6.83;;;24.60;1.00;;;;;;5013908;28;20175;-41
2022/02/14 20:12:43;;;;;;;11.80;7.50;;;24.60;1.00;;;;;;5014430;28;20511;-41
2022/02/14 20:15:10;;;;;;;9.33;7.10;;;24.70;1.00;;;;;;5013950;28;20171;-43
2022/02/14 20:17:37;;;;;;;9.13;6.20;;;24.70;1.00;;;;;;5013836;28;20410;-40
2022/02/14 20:20:04;;;;;;;9.00;6.50;;;24.70;1.00;;;;;;5013077;28;20454;-41
2022/02/14 20:22:30;;;;;;;7.47;5.60;;;24.70;1.00;;;;;;5011856;28;20455;-40
2022/02/14 20:24:56;;;;;;;19.87;6.50;;;24.70;1.00;;;;;;5013156;28;20501;-39
2022/02/14 20:27:23;;;;;;;7.60;6.13;;;24.70;1.00;;;;;;5013911;28;20666;-39
2022/02/14 20:29:49;;;;;;;11.87;6.13;;;24.70;1.00;;;;;;5013296;28;20178;-39
2022/02/14 20:32:15;;;;;;;9.17;5.63;;;24.70;1.00;;;;;;5013721;28;20446;-39
2022/02/14 20:34:41;;;;;;;8.80;6.03;;;24.70;1.00;;;;;;5013771;28;20462;-39
2022/02/14 20:37:07;;;;;;;10.30;6.03;;;24.70;1.00;;;;;;5013603;28;20410;-40
2022/02/14 20:39:33;;;;;;;7.67;6.40;;;24.60;1.00;;;;;;5013612;28;20178;-39
2022/02/14 20:41:59;;;;;;;8.77;7.00;;;24.60;1.00;;;;;;5013281;28;20190;-39
2022/02/14 20:44:24;;;;;;;7.47;5.70;;;24.60;1.00;;;;;;5013320;28;20179;-39
2022/02/14 20:46:54;;;;;;;7.37;5.80;;;24.60;1.00;;;;;;5013377;28;20228;-40
2022/02/14 20:49:22;;;;;;;8.00;6.70;;;24.50;1.00;;;;;;5013543;28;20207;-39
2022/02/14 20:51:49;;;;;;;8.00;5.87;;;24.60;1.00;;;;;;5013065;28;20434;-40
2022/02/14 20:54:16;;;;;;;9.57;5.90;;;24.60;1.00;;;;;;5012943;28;20953;-37
2022/02/14 20:56:42;;;;;;;7.13;5.57;;;24.60;1.00;;;;;;4993665;28;20517;-37
2022/02/14 20:59:07;;;;;;;12.30;7.30;;;24.50;1.00;;;;;;4993464;28;20485;-38
2022/02/14 21:01:34;;;;;;;15.10;9.73;;;24.50;1.00;;;;;;4993110;28;20207;-37
2022/02/14 21:04:00;;;;;;;19.23;13.70;;;24.50;1.00;;;;;;4993725;28;20210;-40
2022/02/14 21:06:26;;;;;;;24.23;15.00;;;24.50;1.00;;;;;;4993513;28;20797;-38
2022/02/14 21:08:52;;;;;;;22.80;15.10;;;24.50;1.00;;;;;;4993631;28;20737;-38
2022/02/14 21:11:22;;;;;;;27.80;17.60;;;24.50;1.00;;;;;;4993208;28;20442;-38
2022/02/14 21:13:49;;;;;;;25.63;18.00;;;24.50;1.00;;;;;;4993202;28;20804;-37
2022/02/14 21:16:15;;;;;;;27.17;17.37;;;24.50;1.00;;;;;;4993623;28;20452;-38
2022/02/14 21:18:41;;;;;;;22.10;16.87;;;24.50;1.00;;;;;;4993471;28;20449;-37
2022/02/14 21:21:07;;;;;;;22.43;14.70;;;24.40;1.00;;;;;;4992884;28;20168;-38
2022/02/14 21:23:33;;;;;;;25.60;16.97;;;24.50;1.00;;;;;;4993164;28;20926;-37
2022/02/14 21:25:59;;;;;;;20.60;14.00;;;24.50;1.00;;;;;;4993104;28;20172;-37
2022/02/14 21:28:25;;;;;;;23.60;15.20;;;24.40;1.00;;;;;;4993034;28;20271;-38
2022/02/14 21:30:51;;;;;;;22.23;14.20;;;24.40;1.00;;;;;;4992720;28;20486;-38
2022/02/14 21:33:17;;;;;;;22.17;15.00;;;24.40;1.00;;;;;;4992995;28;20561;-37
2022/02/14 21:35:43;;;;;;;27.63;14.83;;;24.40;1.00;;;;;;4993067;28;20204;-38
2022/02/14 21:38:09;;;;;;;19.77;14.40;;;24.40;1.00;;;;;;5007270;28;20917;-38
2022/02/14 21:40:35;;;;;;;19.30;13.40;;;24.40;1.00;;;;;;5012004;28;20426;-38
2022/02/14 21:43:01;;;;;;;15.70;12.40;;;24.40;1.00;;;;;;5012265;28;20741;-38
2022/02/14 21:45:26;;;;;;;17.57;13.70;;;24.40;1.00;;;;;;5012482;28;20460;-38
2022/02/14 21:47:52;;;;;;;20.20;12.47;;;24.40;1.00;;;;;;5012292;28;20845;-38
2022/02/14 21:50:18;;;;;;;21.40;12.43;;;24.40;1.00;;;;;;5012101;28;20202;-38
2022/02/14 21:52:44;;;;;;;15.47;12.13;;;24.40;1.00;;;;;;5011993;28;20191;-38
2022/02/14 21:55:09;;;;;;;16.33;11.70;;;24.40;1.00;;;;;;5011989;28;20270;-39
2022/02/14 21:57:35;;;;;;;16.53;12.10;;;24.40;1.00;;;;;;5012021;28;20175;-39
2022/02/14 22:00:01;;;;;;;15.33;10.93;;;24.40;1.00;;;;;;5011760;28;20210;-39
2022/02/14 22:02:26;;;;;;;14.17;11.07;;;24.40;1.00;;;;;;5018772;23;20219;-43
2022/02/14 22:07:37;;;;;;;17.63;10.40;;;24.30;1.00;;;;;;4993611;28;20674;-43
2022/02/14 22:10:09;;;;;;;17.67;10.60;;;24.30;1.00;;;;;;4994187;28;20497;-43
2022/02/14 22:12:34;;;;;;;17.43;11.27;;;24.30;1.00;;;;;;4983177;28;20450;-44
2022/02/14 22:15:02;;;;;;;14.93;10.80;;;24.30;1.00;;;;;;4975270;28;20474;-44
2022/02/14 22:17:29;;;;;;;20.30;11.27;;;24.30;1.00;;;;;;4973909;28;20561;-43
2022/02/14 22:19:55;;;;;;;16.67;10.27;;;24.30;1.00;;;;;;4974664;28;20412;-43
2022/02/14 22:22:21;;;;;;;14.60;9.63;;;24.20;1.00;;;;;;4975070;28;20805;-43
2022/02/14 22:24:48;;;;;;;13.50;8.60;;;24.30;1.00;;;;;;4974834;28;20419;-43
2022/02/14 22:27:14;;;;;;;16.90;9.80;;;24.30;1.00;;;;;;4974896;28;20735;-43
2022/02/14 22:29:39;;;;;;;14.43;9.97;;;24.30;1.00;;;;;;4974712;28;20447;-43
2022/02/14 22:32:06;;;;;;;14.40;9.60;;;24.30;1.00;;;;;;4973376;28;20220;-43
2022/02/14 22:34:32;;;;;;;16.33;9.50;;;24.20;1.00;;;;;;4974720;28;20232;-43
2022/02/14 22:36:57;;;;;;;17.73;9.30;;;24.30;1.00;;;;;;4956857;28;20971;-44
2022/02/14 22:39:25;;;;;;;12.47;8.00;;;24.20;1.00;;;;;;4973311;28;20203;-44
2022/02/14 22:41:56;;;;;;;11.07;8.67;;;24.20;1.00;;;;;;4974327;28;20204;-44
2022/02/14 22:44:23;;;;;;;11.60;8.90;;;24.20;1.00;;;;;;4974284;28;20458;-44
2022/02/14 22:46:49;;;;;;;14.43;8.47;;;24.20;1.00;;;;;;4973783;28;20427;-44
2022/02/14 22:49:15;;;;;;;10.90;8.20;;;24.20;1.00;;;;;;4974131;28;20431;-43
2022/02/14 22:51:42;;;;;;;10.73;7.53;;;24.20;1.00;;;;;;4973318;28;20431;-43
2022/02/14 22:54:07;;;;;;;12.80;8.00;;;24.20;1.00;;;;;;4974335;28;20566;-43
2022/02/14 22:56:34;;;;;;;12.20;7.43;;;24.10;1.00;;;;;;4975148;28;20935;-44
2022/02/14 22:59:01;;;;;;;15.97;7.77;;;24.20;1.00;;;;;;4974176;28;20272;-45
2022/02/14 23:04:11;;;;;;;16.00;8.27;;;24.20;1.00;;;;;;4973496;28;20426;-43
2022/02/14 23:14:50;;;;;;;10.00;6.40;;;24.10;1.00;;;;;;4975105;28;21080;-43
2022/02/14 23:17:16;;;;;;;8.43;6.90;;;24.10;1.00;;;;;;4978366;28;20439;-43
2022/02/14 23:19:41;;;;;;;10.00;6.97;;;24.20;1.00;;;;;;4977159;28;20324;-43
2022/02/14 23:22:07;;;;;;;8.23;6.70;;;24.10;1.00;;;;;;4977450;28;20539;-43
2022/02/14 23:24:33;;;;;;;17.23;7.20;;;24.10;1.00;;;;;;4977665;28;20256;-43
2022/02/14 23:26:59;;;;;;;11.70;6.70;;;24.10;1.00;;;;;;4977385;28;20173;-43
2022/02/14 23:29:24;;;;;;;10.70;7.30;;;24.10;1.00;;;;;;4960058;28;20587;-43
2022/02/14 23:31:50;;;;;;;10.13;6.10;;;24.10;1.00;;;;;;4976514;28;20454;-43
2022/02/14 23:34:16;;;;;;;10.67;6.50;;;24.10;1.00;;;;;;4977038;28;20575;-43
2022/02/14 23:36:41;;;;;;;7.50;6.27;;;24.10;1.00;;;;;;4977049;28;20254;-43
2022/02/14 23:39:07;;;;;;;8.63;6.33;;;24.10;1.00;;;;;;4976961;28;20256;-43
2022/02/14 23:41:33;;;;;;;16.03;6.63;;;24.10;1.00;;;;;;4976395;28;20263;-43
2022/02/14 23:43:58;;;;;;;9.83;6.40;;;24.00;1.00;;;;;;4977722;28;20192;-43
2022/02/14 23:46:25;;;;;;;8.97;6.07;;;24.00;1.00;;;;;;4979642;28;20204;-43
2022/02/14 23:48:53;;;;;;;6.80;6.00;;;24.10;1.00;;;;;;4977769;28;20191;-43
2022/02/14 23:51:22;;;;;;;8.53;6.00;;;24.10;1.00;;;;;;4979458;28;20415;-43
2022/02/14 23:53:49;;;;;;;8.47;6.40;;;24.10;1.00;;;;;;4977127;28;20470;-43
2022/02/14 23:56:14;;;;;;;10.43;7.03;;;24.00;1.00;;;;;;4977265;28;20428;-43
2022/02/14 23:58:40;;;;;;;10.20;6.57;;;24.00;1.00;;;;;;4977243;28;20967;-43
